Time;durP1;ratioP1;P1;durP2;ratioP2;P2;SDS_P1;SDS_P2;PMS_P1;PMS_P2;Temp;Humidity;BMP_temperature;BMP_pressure;BME280_temperature;BME280_humidity;BME280_pressure;Samples;Min_cycle;Max_cycle;Signal;HPM_P1;HPM_P2
2022/05/01 00:02:04;;;;;;;5.65;5.15;;;;;;;10.98;63.01;95341.94;4982939;28;20042;-78
2022/05/01 00:04:30;;;;;;;7.60;5.30;;;;;;;10.94;63.08;95346.00;5005156;28;20065;-79
2022/05/01 00:06:55;;;;;;;9.30;5.05;;;;;;;10.96;62.97;95341.34;4978853;28;20023;-78
2022/05/01 00:09:21;;;;;;;5.80;5.20;;;;;;;11.00;62.71;95341.69;5017051;23;20026;-78
2022/05/01 00:11:46;;;;;;;5.53;5.03;;;;;;;11.04;62.76;95342.84;5045039;28;20038;-79
2022/05/01 00:14:12;;;;;;;9.32;5.22;;;;;;;11.04;62.94;95329.84;5033038;28;20029;-79
2022/05/01 00:16:37;;;;;;;5.57;5.15;;;;;;;11.06;62.86;95325.19;5037197;28;20099;-78
2022/05/01 00:19:03;;;;;;;6.75;5.18;;;;;;;11.12;62.78;95314.72;5032284;28;20034;-79
2022/05/01 00:21:28;;;;;;;7.32;5.28;;;;;;;11.18;62.73;95318.22;5014065;28;20041;-79
2022/05/01 00:23:54;;;;;;;7.22;5.75;;;;;;;11.18;62.55;95317.44;5014965;28;20390;-80
2022/05/01 00:26:19;;;;;;;14.68;5.32;;;;;;;11.15;62.48;95313.47;5002473;28;20037;-79
2022/05/01 00:28:45;;;;;;;6.53;5.93;;;;;;;11.06;62.93;95320.00;4999156;28;20034;-80
2022/05/01 00:31:10;;;;;;;6.03;5.60;;;;;;;11.05;62.92;95319.19;4998959;28;20048;-80
2022/05/01 00:36:26;;;;;;;9.73;6.13;;;;;;;10.93;63.92;95315.78;5007600;28;20044;-80
2022/05/01 00:38:55;;;;;;;7.85;6.93;;;;;;;10.83;63.99;95321.50;5036283;28;20030;-80
2022/05/01 00:41:21;;;;;;;12.85;6.30;;;;;;;10.81;64.56;95313.13;5018367;28;20537;-80
2022/05/01 00:44:13;;;;;;;8.90;6.25;;;;;;;10.69;64.97;95322.69;5035639;28;20037;-80
2022/05/01 00:46:43;;;;;;;12.27;6.78;;;;;;;10.63;65.46;95315.78;5035755;28;20043;-80
2022/05/01 00:49:10;;;;;;;7.60;6.80;;;;;;;10.60;65.83;95315.41;4985889;28;20555;-80
2022/05/01 00:51:41;;;;;;;8.95;7.50;;;;;;;10.52;66.11;95308.69;5018360;28;20033;-80
2022/05/01 00:54:07;;;;;;;7.95;7.13;;;;;;;10.58;66.49;95312.25;5018395;28;20673;-80
2022/05/01 00:56:37;;;;;;;7.72;6.97;;;;;;;10.49;66.90;95324.75;5018688;28;20029;-80
2022/05/01 00:59:03;;;;;;;9.52;8.00;;;;;;;10.40;67.16;95326.03;5003198;28;20033;-80
2022/05/01 01:01:37;;;;;;;17.48;7.45;;;;;;;10.38;67.79;95322.88;5018361;28;20110;-79
2022/05/01 01:04:03;;;;;;;9.55;7.57;;;;;;;10.35;67.69;95323.31;5033833;28;20025;-80
2022/05/01 01:06:31;;;;;;;10.90;7.95;;;;;;;10.37;67.69;95319.47;5035497;28;20099;-80
2022/05/01 01:08:57;;;;;;;13.57;8.88;;;;;;;10.33;68.34;95312.34;5018780;28;20029;-80
2022/05/01 01:11:22;;;;;;;9.80;8.80;;;;;;;10.26;68.52;95319.41;5002911;28;20083;-80
2022/05/01 01:16:20;;;;;;;10.68;8.43;;;;;;;10.12;69.17;95318.72;5040039;23;20050;-79
2022/05/01 01:18:47;;;;;;;10.52;9.35;;;;;;;10.11;69.35;95319.75;5019417;28;20112;-79
2022/05/01 01:21:12;;;;;;;11.02;8.30;;;;;;;10.06;69.37;95315.19;4985656;28;20036;-80
2022/05/01 01:23:39;;;;;;;17.30;8.98;;;;;;;10.00;69.86;95310.84;5016251;28;20038;-79
2022/05/01 01:26:05;;;;;;;12.00;9.52;;;;;;;9.93;70.42;95320.53;4999277;28;20045;-79
2022/05/01 01:28:35;;;;;;;13.68;9.85;;;;;;;9.85;71.04;95313.00;5017258;28;20037;-79
2022/05/01 01:33:47;;;;;;;21.40;10.40;;;;;;;9.81;71.15;95306.66;5016213;28;20044;-79
2022/05/01 01:36:22;;;;;;;14.32;10.15;;;;;;;9.77;71.30;95301.09;4982425;28;20045;-79
2022/05/01 01:38:51;;;;;;;16.88;10.15;;;;;;;9.76;71.88;95309.91;4984065;28;20045;-80
2022/05/01 01:41:21;;;;;;;18.63;9.80;;;;;;;9.74;71.58;95305.91;4999296;28;20036;-80
2022/05/01 01:43:47;;;;;;;14.25;9.68;;;;;;;9.81;71.80;95309.25;4998662;28;20684;-80
2022/05/01 01:46:12;;;;;;;20.05;10.02;;;;;;;9.80;71.64;95307.66;4965288;28;20030;-80
2022/05/01 01:48:38;;;;;;;15.35;10.95;;;;;;;9.77;71.96;95301.09;5016025;28;20486;-80
2022/05/01 01:51:04;;;;;;;13.82;10.68;;;;;;;9.84;72.03;95303.63;4982382;28;20116;-79
2022/05/01 01:53:30;;;;;;;13.57;10.05;;;;;;;9.81;71.81;95307.44;4982581;28;21043;-79
2022/05/01 01:55:59;;;;;;;12.45;10.15;;;;;;;9.84;71.95;95301.03;4982952;28;20513;-79
2022/05/01 01:58:26;;;;;;;15.75;11.02;;;;;;;9.83;72.07;95315.03;4998611;28;20045;-79
2022/05/01 02:00:51;;;;;;;26.15;11.10;;;;;;;9.89;71.83;95298.56;4998461;28;20112;-80
2022/05/01 02:03:17;;;;;;;16.38;11.40;;;;;;;9.80;72.63;95303.25;4982751;28;20033;-79
2022/05/01 02:05:42;;;;;;;14.65;10.82;;;;;;;9.80;72.57;95297.28;4998450;28;20565;-80
2022/05/01 02:08:08;;;;;;;19.42;11.40;;;;;;;9.80;72.19;95300.66;4982210;28;20497;-80
2022/05/01 02:10:34;;;;;;;16.80;11.85;;;;;;;9.75;72.74;95299.69;5013847;23;20051;-80
2022/05/01 02:13:03;;;;;;;17.20;12.00;;;;;;;9.77;72.37;95297.72;4977034;28;20062;-80
2022/05/01 02:15:30;;;;;;;15.35;12.35;;;;;;;9.77;72.92;95295.09;4977223;28;20030;-79
2022/05/01 02:17:56;;;;;;;17.58;11.95;;;;;;;9.78;72.80;95296.69;4977369;28;20034;-80
2022/05/01 02:20:21;;;;;;;21.60;13.45;;;;;;;9.72;73.02;95298.31;4963661;28;20035;-79
2022/05/01 02:22:47;;;;;;;26.15;13.75;;;;;;;9.69;73.00;95292.78;4961304;28;20038;-79
2022/05/01 02:25:12;;;;;;;16.50;12.85;;;;;;;9.71;73.07;95295.94;4976077;28;20050;-79
2022/05/01 02:27:37;;;;;;;17.77;13.18;;;;;;;9.68;73.09;95301.56;4958960;28;20023;-79
2022/05/01 02:30:07;;;;;;;21.15;13.48;;;;;;;9.72;73.32;95287.16;4961365;28;20031;-79
2022/05/01 02:32:36;;;;;;;18.80;13.55;;;;;;;9.62;74.19;95293.63;4953693;28;20041;-80
2022/05/01 02:35:01;;;;;;;24.13;13.68;;;;;;;9.63;73.61;95299.63;4926437;28;20361;-79
2022/05/01 02:37:27;;;;;;;21.23;13.23;;;;;;;9.67;73.71;95294.78;4958517;28;20479;-79
2022/05/01 02:39:52;;;;;;;24.98;13.38;;;;;;;9.74;73.28;95285.91;4958680;28;20659;-78
2022/05/01 02:42:19;;;;;;;19.55;13.30;;;;;;;9.71;74.00;95295.94;4944332;28;20035;-79
2022/05/01 02:44:47;;;;;;;27.02;12.55;;;;;;;9.75;73.43;95292.69;4934840;28;20046;-79
2022/05/01 02:47:13;;;;;;;16.60;13.20;;;;;;;9.68;73.84;95291.19;4979633;28;20033;-79
2022/05/01 02:49:40;;;;;;;26.60;15.07;;;;;;;9.69;73.46;95290.19;4960103;28;20024;-79
2022/05/01 02:52:08;;;;;;;18.67;13.65;;;;;;;9.67;73.58;95287.78;4942327;28;20043;-78
2022/05/01 02:54:33;;;;;;;24.10;14.13;;;;;;;9.62;74.14;95285.06;4974393;28;20039;-78
2022/05/01 02:56:59;;;;;;;19.92;14.60;;;;;;;9.58;74.43;95287.25;4974933;28;20026;-79
2022/05/01 02:59:25;;;;;;;25.38;13.98;;;;;;;9.58;74.09;95292.47;4975399;28;20034;-79
2022/05/01 03:01:51;;;;;;;22.50;14.63;;;;;;;9.56;74.49;95291.88;4958220;28;20073;-79
2022/05/01 03:04:16;;;;;;;24.30;14.50;;;;;;;9.56;74.01;95302.25;4943212;28;20065;-79
2022/05/01 03:06:42;;;;;;;18.38;14.23;;;;;;;9.64;74.02;95290.81;4975645;28;20506;-79
2022/05/01 03:09:08;;;;;;;17.75;13.52;;;;;;;9.65;74.20;95294.22;4975067;28;20039;-79
2022/05/01 03:11:37;;;;;;;17.98;13.57;;;;;;;9.67;74.34;95292.19;4975875;28;20035;-79
2022/05/01 03:14:09;;;;;;;24.55;14.95;;;;;;;9.74;73.08;95298.91;4978053;28;20125;-79
2022/05/01 03:16:35;;;;;;;22.80;14.32;;;;;;;9.82;73.18;95303.03;4943558;28;20037;-80
2022/05/01 03:24:28;;;;;;;17.02;13.13;;;;;;;9.78;73.29;95292.28;5018239;28;20036;-79
2022/05/01 03:26:54;;;;;;;21.08;14.63;;;;;;;9.88;72.83;95302.97;5016363;28;20038;-79
2022/05/01 03:29:19;;;;;;;15.93;13.30;;;;;;;9.95;72.67;95310.72;5016394;28;20033;-79
2022/05/01 03:31:46;;;;;;;22.42;13.80;;;;;;;9.98;72.58;95307.69;5014981;28;20049;-79
2022/05/01 03:34:12;;;;;;;17.20;14.07;;;;;;;10.04;71.88;95311.22;5000696;28;20041;-79
2022/05/01 03:36:39;;;;;;;20.00;15.98;;;;;;;10.09;71.78;95317.38;5015897;28;20474;-78
2022/05/01 03:39:05;;;;;;;17.13;14.13;;;;;;;10.11;72.20;95312.75;4995615;28;20033;-79
2022/05/01 03:41:31;;;;;;;17.52;13.30;;;;;;;10.18;71.20;95318.66;4994921;28;20030;-79
2022/05/01 03:43:56;;;;;;;19.80;13.80;;;;;;;10.36;70.96;95330.09;5006614;23;20052;-78
2022/05/01 03:46:22;;;;;;;15.55;12.93;;;;;;;10.45;70.58;95334.00;5015137;28;20034;-79
2022/05/01 03:48:48;;;;;;;15.52;13.15;;;;;;;10.64;69.92;95332.97;5015882;28;20046;-79
2022/05/01 03:51:13;;;;;;;16.00;12.98;;;;;;;10.79;69.48;95333.38;5015037;28;20470;-79
2022/05/01 03:53:39;;;;;;;16.25;13.25;;;;;;;11.02;68.28;95326.66;4996223;28;20033;-79
2022/05/01 03:56:05;;;;;;;12.73;11.23;;;;;;;11.24;67.37;95326.97;4979907;28;20128;-79
2022/05/01 03:58:30;;;;;;;16.55;12.57;;;;;;;11.39;66.71;95328.13;4997596;28;20030;-79
2022/05/01 04:00:56;;;;;;;15.85;12.82;;;;;;;11.43;66.22;95325.88;4999831;28;20038;-79
2022/05/01 04:03:22;;;;;;;20.23;13.43;;;;;;;11.58;66.12;95333.25;4997162;28;20030;-79
2022/05/01 04:05:48;;;;;;;16.13;13.10;;;;;;;11.80;65.08;95331.72;4997828;28;20117;-79
2022/05/01 04:08:13;;;;;;;16.77;11.63;;;;;;;12.43;64.39;95336.19;5008228;28;20026;-79
2022/05/01 04:10:40;;;;;;;15.82;12.27;;;;;;;13.92;59.27;95340.38;4999623;28;20033;-78
2022/05/01 04:13:06;;;;;;;17.40;11.27;;;;;;;15.34;54.89;95328.22;5012333;28;20093;-79
2022/05/01 04:15:31;;;;;;;49.80;27.25;;;;;;;16.65;50.90;95338.84;5019049;28;20061;-79
2022/05/01 04:17:57;;;;;;;79.40;49.15;;;;;;;17.82;47.85;95339.09;5000471;28;20040;-80
2022/05/01 04:20:23;;;;;;;72.03;32.47;;;;;;;18.87;44.69;95340.97;4999714;28;20042;-80
2022/05/01 04:22:49;;;;;;;47.15;24.70;;;;;;;20.11;41.81;95338.03;5000241;28;20030;-80
2022/05/01 04:25:18;;;;;;;36.33;16.45;;;;;;;21.18;39.23;95334.22;5000268;28;20033;-79
2022/05/01 04:27:53;;;;;;;30.88;14.98;;;;;;;22.26;36.54;95326.97;5018458;28;20543;-80
2022/05/01 04:30:20;;;;;;;27.52;14.63;;;;;;;23.18;34.98;95336.59;4984234;28;20092;-79
2022/05/01 04:32:55;;;;;;;28.80;16.80;;;;;;;24.18;32.57;95336.41;4984296;28;20048;-80
2022/05/01 04:35:34;;;;;;;36.33;17.35;;;;;;;25.35;31.04;95330.56;5017883;28;20041;-80
2022/05/01 04:38:00;;;;;;;42.50;21.40;;;;;;;26.12;29.49;95329.75;5015728;28;20034;-80
2022/05/01 04:40:31;;;;;;;56.70;24.73;;;;;;;27.20;27.40;95332.94;4999769;28;20049;-80
2022/05/01 04:43:09;;;;;;;53.17;19.83;;;;;;;28.23;26.40;95322.47;4977057;28;20038;-80
2022/05/01 04:45:36;;;;;;;28.83;14.93;;;;;;;29.04;24.85;95320.88;4999447;28;20112;-81
2022/05/01 04:48:02;;;;;;;21.52;11.70;;;;;;;29.96;23.65;95317.41;5018392;23;20044;-81
2022/05/01 04:50:28;;;;;;;9.63;7.30;;;;;;;30.54;22.37;95320.41;5035921;28;20041;-81
2022/05/01 04:52:54;;;;;;;10.88;7.47;;;;;;;30.58;21.81;95313.22;5018051;28;20564;-81
2022/05/01 04:55:19;;;;;;;14.57;6.70;;;;;;;31.34;20.87;95309.25;5035782;28;20510;-81
2022/05/01 04:57:45;;;;;;;6.82;6.20;;;;;;;30.42;22.40;95318.59;5018529;28;20030;-81
2022/05/01 05:00:11;;;;;;;10.35;6.45;;;;;;;30.94;21.19;95318.34;5019778;28;20040;-81
2022/05/01 05:02:38;;;;;;;7.80;6.28;;;;;;;30.25;21.84;95317.03;5019131;28;20034;-81
2022/05/01 05:05:05;;;;;;;14.07;7.20;;;;;;;29.85;22.33;95314.41;5004130;28;20037;-81
2022/05/01 05:07:31;;;;;;;10.95;6.40;;;;;;;29.54;22.68;95328.50;5005390;28;20038;-81
2022/05/01 05:09:57;;;;;;;17.33;6.93;;;;;;;28.33;24.16;95324.75;5004995;28;20267;-81
2022/05/01 05:12:22;;;;;;;7.95;7.25;;;;;;;27.98;24.71;95327.72;5017665;28;20033;-80
2022/05/01 05:14:51;;;;;;;11.50;6.75;;;;;;;26.58;26.32;95329.00;5018249;28;20034;-81
2022/05/01 05:18:09;;;;;;;12.32;6.88;;;;;;;26.11;27.04;95325.50;5035242;28;20117;-80
2022/05/01 05:20:35;;;;;;;15.43;7.18;;;;;;;25.72;27.80;95340.63;5036227;28;20044;-81
2022/05/01 05:23:00;;;;;;;9.23;7.32;;;;;;;25.42;28.25;95331.66;5036585;28;20037;-80
2022/05/01 05:25:26;;;;;;;10.20;7.10;;;;;;;25.79;27.95;95334.03;5037399;28;20091;-80
2022/05/01 05:27:51;;;;;;;9.68;6.78;;;;;;;25.42;28.26;95336.22;5003127;28;20022;-80
2022/05/01 05:30:17;;;;;;;12.38;7.70;;;;;;;25.25;28.92;95330.88;5037740;28;20048;-80
2022/05/01 05:32:42;;;;;;;7.72;6.93;;;;;;;25.92;28.07;95331.19;5018355;28;20041;-81
2022/05/01 05:35:08;;;;;;;9.90;7.32;;;;;;;27.44;26.35;95333.06;5001974;28;20524;-81
2022/05/01 05:37:33;;;;;;;10.45;6.75;;;;;;;27.63;25.96;95337.16;5019751;28;20452;-81
2022/05/01 05:39:59;;;;;;;10.82;6.25;;;;;;;27.67;25.72;95340.78;5022505;28;20040;-80
2022/05/01 05:42:24;;;;;;;7.78;6.55;;;;;;;27.84;25.73;95334.50;5004148;28;20025;-81
2022/05/01 05:44:50;;;;;;;7.25;5.55;;;;;;;27.68;25.53;95337.00;5002127;28;20033;-81
2022/05/01 05:47:16;;;;;;;8.60;6.47;;;;;;;28.42;24.77;95328.09;5001925;28;20080;-80
2022/05/01 05:49:41;;;;;;;6.50;5.60;;;;;;;29.69;23.17;95319.75;4994131;28;20362;-80
2022/05/01 05:52:07;;;;;;;6.03;5.60;;;;;;;30.25;22.44;95330.44;5017871;28;20029;-78
2022/05/01 05:54:33;;;;;;;6.95;5.53;;;;;;;29.27;23.61;95328.09;5032281;28;20092;-80
2022/05/01 05:56:58;;;;;;;7.63;5.70;;;;;;;29.36;22.86;95327.19;5015613;28;20116;-80
2022/05/01 05:59:24;;;;;;;8.65;6.35;;;;;;;29.16;23.62;95324.31;5015323;28;20030;-80
2022/05/01 06:01:49;;;;;;;8.10;5.50;;;;;;;29.53;23.17;95329.63;5016404;28;20524;-80
2022/05/01 06:04:14;;;;;;;9.25;5.38;;;;;;;29.37;23.37;95324.16;5017283;28;20055;-80
2022/05/01 06:06:40;;;;;;;7.40;5.50;;;;;;;30.37;22.38;95332.28;5017552;28;20025;-81
2022/05/01 06:09:07;;;;;;;7.75;4.50;;;;;;;32.02;20.76;95335.59;4985016;28;20037;-80
2022/05/01 06:11:32;;;;;;;11.05;5.47;;;;;;;32.03;20.25;95339.81;5035417;28;20030;-80
2022/05/01 06:13:57;;;;;;;7.35;4.85;;;;;;;32.51;19.28;95337.63;5033923;28;20033;-79
2022/05/01 06:16:23;;;;;;;6.38;5.00;;;;;;;31.53;20.59;95346.88;5015680;28;20057;-78
2022/05/01 06:18:48;;;;;;;5.90;4.80;;;;;;;31.05;20.83;95330.09;5033189;28;22211;-79
2022/05/01 06:21:14;;;;;;;9.20;5.40;;;;;;;30.04;22.53;95336.03;5034545;28;20075;-79
2022/05/01 06:23:40;;;;;;;9.18;5.55;;;;;;;29.03;23.92;95325.47;5000017;28;20026;-79
2022/05/01 06:26:07;;;;;;;7.88;5.25;;;;;;;27.85;24.83;95342.19;5033438;28;20035;-79
2022/05/01 06:28:32;;;;;;;9.27;7.35;;;;;;;27.31;25.73;95334.09;5017297;28;20029;-79
2022/05/01 06:30:59;;;;;;;6.60;5.72;;;;;;;26.45;26.99;95345.19;5017163;28;20059;-80
2022/05/01 06:33:24;;;;;;;8.40;6.50;;;;;;;25.21;28.75;95333.34;5022187;28;20489;-81
2022/05/01 06:35:52;;;;;;;10.63;5.93;;;;;;;24.79;29.71;95340.16;4990046;28;20041;-81
2022/05/01 06:38:18;;;;;;;10.90;5.88;;;;;;;25.26;28.75;95343.88;5036321;28;20033;-81
2022/05/01 06:40:44;;;;;;;8.50;6.10;;;;;;;24.79;29.45;95350.78;5022231;28;20129;-81
2022/05/01 06:43:13;;;;;;;9.05;5.70;;;;;;;25.06;29.02;95339.94;5034423;28;20032;-79
2022/05/01 06:45:39;;;;;;;6.85;4.97;;;;;;;25.17;28.62;95352.94;5017582;28;20044;-80
2022/05/01 06:48:05;;;;;;;9.05;6.38;;;;;;;23.02;31.87;95353.94;5037285;28;20027;-79
2022/05/01 06:50:30;;;;;;;6.85;6.10;;;;;;;22.00;33.92;95345.16;5036623;28;20037;-79
2022/05/01 06:52:56;;;;;;;8.02;5.88;;;;;;;21.83;34.66;95342.28;5004310;28;20025;-81
2022/05/01 06:55:25;;;;;;;10.88;6.65;;;;;;;21.49;35.19;95351.25;5015375;28;20107;-79
2022/05/01 06:57:51;;;;;;;7.93;7.10;;;;;;;21.63;35.15;95339.91;4998977;28;20029;-78
2022/05/01 07:00:17;;;;;;;8.02;6.90;;;;;;;21.54;34.87;95347.75;5010377;28;20052;-78
2022/05/01 07:02:50;;;;;;;6.60;5.90;;;;;;;21.23;35.70;95350.78;5032650;28;20492;-79
2022/05/01 07:05:15;;;;;;;13.35;6.35;;;;;;;20.87;36.30;95339.91;5018348;28;20025;-78
2022/05/01 07:07:41;;;;;;;10.93;7.22;;;;;;;20.62;37.27;95337.53;5017630;28;20068;-79
2022/05/01 07:10:07;;;;;;;8.23;6.90;;;;;;;20.58;37.38;95332.03;5015169;28;20029;-79
2022/05/01 07:12:33;;;;;;;8.15;6.63;;;;;;;20.86;37.23;95338.31;5014696;28;20067;-79
2022/05/01 07:14:58;;;;;;;11.07;6.00;;;;;;;20.84;36.52;95343.09;5015730;28;20033;-79
2022/05/01 07:17:24;;;;;;;8.55;6.75;;;;;;;20.38;37.14;95340.16;5000303;28;20036;-81
2022/05/01 07:19:49;;;;;;;9.13;6.45;;;;;;;19.89;37.85;95356.19;5015622;28;20112;-80
2022/05/01 07:22:16;;;;;;;9.10;6.65;;;;;;;19.44;38.98;95344.88;5015771;28;20041;-79
2022/05/01 07:24:41;;;;;;;8.25;6.93;;;;;;;19.55;39.59;95346.44;4998716;28;20755;-77
2022/05/01 07:27:07;;;;;;;8.48;6.50;;;;;;;20.07;38.69;95339.66;5031014;28;20218;-78
2022/05/01 07:29:33;;;;;;;9.60;6.82;;;;;;;20.33;37.63;95329.63;5014180;28;20052;-79
2022/05/01 07:31:58;;;;;;;7.70;7.00;;;;;;;19.98;38.60;95359.81;4998228;28;20036;-78
2022/05/01 07:34:23;;;;;;;8.48;6.53;;;;;;;19.78;38.69;95329.88;5033329;28;20045;-79
2022/05/01 07:36:49;;;;;;;9.35;6.85;;;;;;;19.94;38.85;95342.94;5014233;28;20030;-77
2022/05/01 07:39:14;;;;;;;8.38;7.10;;;;;;;19.94;38.71;95319.97;5034381;28;20037;-79
2022/05/01 07:41:41;;;;;;;11.05;6.50;;;;;;;20.36;38.41;95319.31;5013408;28;20038;-76
2022/05/01 07:44:08;;;;;;;13.65;7.10;;;;;;;20.22;37.71;95328.19;5032447;28;20017;-78
2022/05/01 07:46:34;;;;;;;14.20;6.50;;;;;;;19.78;38.08;95337.78;5004503;28;20489;-79
2022/05/01 07:49:00;;;;;;;15.43;5.60;;;;;;;19.85;36.28;95342.78;5037746;28;20081;-78
2022/05/01 07:51:25;;;;;;;9.57;6.10;;;;;;;19.43;37.73;95353.84;5021915;28;20057;-78
2022/05/01 07:53:53;;;;;;;12.57;5.82;;;;;;;19.43;38.46;95327.50;5035314;28;20030;-78
2022/05/01 07:56:19;;;;;;;7.88;6.22;;;;;;;19.15;38.78;95348.22;5019719;28;20048;-78
2022/05/01 07:58:45;;;;;;;10.52;6.25;;;;;;;18.48;39.96;95339.00;5035856;28;20048;-79
2022/05/01 08:01:10;;;;;;;9.73;8.13;;;;;;;18.24;39.53;95327.47;5022249;28;20045;-78
2022/05/01 08:06:22;;;;;;;9.60;6.68;;;;;;;18.31;40.21;95338.50;5007133;28;20103;-78
2022/05/01 08:08:47;;;;;;;6.60;6.00;;;;;;;18.14;39.77;95341.44;5016039;28;20064;-78
2022/05/01 08:11:13;;;;;;;6.60;6.00;;;;;;;18.28;40.27;95337.19;5014226;28;20045;-78
2022/05/01 08:13:39;;;;;;;7.22;6.47;;;;;;;18.48;40.46;95336.34;5017673;28;20041;-78
2022/05/01 08:16:04;;;;;;;6.90;5.95;;;;;;;18.95;39.67;95340.41;5018613;28;20026;-78
2022/05/01 08:21:14;;;;;;;5.65;5.15;;;;;;;19.40;37.47;95326.19;5006466;28;20123;-78
2022/05/01 08:23:40;;;;;;;7.00;5.57;;;;;;;19.79;36.83;95310.34;5002651;28;20505;-79
2022/05/01 08:26:06;;;;;;;5.22;4.78;;;;;;;19.88;36.05;95312.41;5020026;28;20037;-78
2022/05/01 08:28:32;;;;;;;7.18;5.22;;;;;;;19.49;36.56;95326.38;5018992;28;20094;-78
2022/05/01 08:30:58;;;;;;;6.97;5.22;;;;;;;19.63;36.51;95311.53;5039592;28;20030;-78
2022/05/01 08:33:23;;;;;;;5.97;4.78;;;;;;;19.54;35.39;95310.56;5038481;28;20171;-78
2022/05/01 08:35:49;;;;;;;6.15;4.47;;;;;;;19.57;34.78;95312.66;5002051;28;20037;-78
2022/05/01 08:38:14;;;;;;;7.35;4.45;;;;;;;19.57;34.86;95309.22;5002593;28;20064;-79
2022/05/01 08:40:40;;;;;;;7.45;5.22;;;;;;;19.45;35.60;95328.00;5017074;28;20091;-79
2022/05/01 08:43:06;;;;;;;5.15;4.75;;;;;;;19.52;35.93;95298.66;5005718;28;20029;-79
2022/05/01 08:46:08;;;;;;;9.23;5.57;;;;;;;19.74;35.19;95301.69;5036152;28;20029;-81
2022/05/01 08:48:36;;;;;;;6.07;5.05;;;;;;;19.96;35.15;95290.66;4995235;28;20037;-78
2022/05/01 08:51:02;;;;;;;5.10;4.57;;;;;;;20.10;35.02;95296.88;5017207;28;20045;-80
2022/05/01 08:53:28;;;;;;;5.38;4.85;;;;;;;19.85;34.15;95291.81;5005799;28;20099;-81
2022/05/01 08:55:53;;;;;;;4.35;3.95;;;;;;;19.76;33.07;95294.28;5004953;28;20082;-81
2022/05/01 08:58:19;;;;;;;11.05;5.00;;;;;;;19.29;34.04;95286.97;5022042;23;20497;-81
2022/05/01 09:00:44;;;;;;;11.43;3.75;;;;;;;18.99;33.63;95286.09;5020348;28;20048;-80
2022/05/01 09:03:10;;;;;;;3.97;3.60;;;;;;;18.75;34.81;95287.81;5005111;28;20041;-81
2022/05/01 09:05:38;;;;;;;9.65;4.85;;;;;;;19.08;35.11;95287.09;5021222;28;20543;-81
2022/05/01 09:08:04;;;;;;;8.02;3.30;;;;;;;19.31;32.00;95279.56;5038196;28;20057;-81
2022/05/01 09:10:31;;;;;;;4.43;3.80;;;;;;;19.65;31.63;95267.19;4987246;28;20033;-81
2022/05/01 09:12:57;;;;;;;3.38;3.17;;;;;;;19.65;31.33;95267.19;5003876;28;20056;-81
2022/05/01 09:15:31;;;;;;;3.35;3.15;;;;;;;19.65;30.09;95276.94;4988542;28;20033;-81
2022/05/01 09:18:01;;;;;;;4.40;2.63;;;;;;;19.40;30.59;95264.75;5021331;28;20029;-81
2022/05/01 09:20:27;;;;;;;9.88;2.97;;;;;;;19.29;31.77;95261.38;5003911;28;20120;-81
2022/05/01 09:22:53;;;;;;;8.40;3.38;;;;;;;19.43;31.63;95253.63;5003578;28;20061;-81
2022/05/01 09:25:24;;;;;;;5.82;2.97;;;;;;;19.48;31.67;95258.88;5019516;28;20048;-79
2022/05/01 09:27:56;;;;;;;3.22;2.70;;;;;;;19.17;31.71;95253.81;5005848;28;20056;-81
2022/05/01 09:30:54;;;;;;;;;;;;;;;19.12;30.41;95264.41;5008339;28;20029;-81
2022/05/01 09:33:20;;;;;;;2.70;2.33;;;;;;;18.77;29.99;95257.50;4975725;28;20313;-81
2022/05/01 09:35:46;;;;;;;3.33;2.25;;;;;;;18.96;30.48;95244.47;5022170;28;20040;-81
2022/05/01 09:38:25;;;;;;;5.05;2.88;;;;;;;18.90;31.30;95245.59;5022779;28;20029;-81
2022/05/01 09:40:55;;;;;;;4.45;2.63;;;;;;;19.29;30.58;95236.88;5005346;28;20111;-81
2022/05/01 09:43:41;;;;;;;8.90;3.03;;;;;;;19.71;30.37;95234.44;5022090;28;20037;-80
2022/05/01 09:46:09;;;;;;;3.13;2.45;;;;;;;19.91;30.00;95228.16;5038404;28;20036;-80
2022/05/01 09:48:35;;;;;;;3.30;3.00;;;;;;;19.81;30.15;95227.47;5040564;28;20028;-81
2022/05/01 09:51:01;;;;;;;4.03;2.97;;;;;;;19.93;30.27;95226.03;5020076;28;20030;-81
2022/05/01 09:53:27;;;;;;;8.65;2.90;;;;;;;20.01;28.69;95225.44;5025343;23;20726;-81
2022/05/01 09:56:00;;;;;;;3.58;2.83;;;;;;;19.99;28.45;95219.63;5015370;28;20038;-81
2022/05/01 09:58:30;;;;;;;2.65;2.45;;;;;;;19.99;28.42;95210.91;5015596;28;20044;-81
2022/05/01 10:00:55;;;;;;;2.90;2.50;;;;;;;20.07;28.25;95212.94;4997870;28;20505;-81
2022/05/01 10:03:28;;;;;;;2.80;2.25;;;;;;;20.12;27.26;95207.59;5012891;28;20048;-81
2022/05/01 10:05:54;;;;;;;3.38;2.20;;;;;;;20.13;27.54;95217.09;5031690;28;20053;-80
2022/05/01 10:08:20;;;;;;;2.53;2.33;;;;;;;20.20;28.26;95209.63;5011601;28;20025;-81
2022/05/01 10:10:51;;;;;;;2.33;2.17;;;;;;;20.10;26.58;95230.84;5009627;28;20049;-81
2022/05/01 10:13:16;;;;;;;2.00;1.90;;;;;;;19.75;27.51;95203.00;4990553;28;20516;-80
2022/05/01 10:15:42;;;;;;;5.13;2.72;;;;;;;19.58;27.59;95218.47;5010971;28;20037;-81
2022/05/01 10:18:08;;;;;;;2.53;2.33;;;;;;;19.58;27.66;95208.69;5007818;28;20041;-79
2022/05/01 10:20:34;;;;;;;3.55;2.28;;;;;;;19.68;27.81;95198.03;5009376;28;20037;-80
2022/05/01 10:23:01;;;;;;;4.60;2.45;;;;;;;19.74;28.73;95191.66;5018024;28;20117;-80
2022/05/01 10:25:28;;;;;;;3.38;2.33;;;;;;;19.46;28.14;95195.06;5011260;28;20036;-80
2022/05/01 10:28:18;;;;;;;5.93;2.55;;;;;;;19.42;28.64;95194.03;5006233;28;20046;-80
2022/05/01 10:34:34;;;;;;;3.53;2.70;;;;;;;19.81;28.54;95174.69;5005202;28;20052;-81
2022/05/01 10:37:21;;;;;;;4.60;2.72;;;;;;;20.17;28.47;95173.19;5033018;28;20025;-80
2022/05/01 10:39:47;;;;;;;2.65;2.45;;;;;;;20.04;27.47;95174.69;5026373;28;20041;-80
2022/05/01 10:42:18;;;;;;;3.22;2.83;;;;;;;19.89;28.04;95166.16;5008741;28;20041;-80
2022/05/01 10:44:44;;;;;;;7.35;2.60;;;;;;;19.31;29.66;95179.38;5023636;28;20111;-80
2022/05/01 10:47:14;;;;;;;5.28;2.10;;;;;;;19.32;29.36;95167.75;5009708;28;20042;-80
2022/05/01 10:49:41;;;;;;;2.60;2.40;;;;;;;19.43;29.73;95158.69;5010423;28;20096;-80
2022/05/01 10:52:20;;;;;;;3.22;2.95;;;;;;;19.33;29.50;95166.69;5025477;28;20033;-80
2022/05/01 10:55:05;;;;;;;5.95;2.70;;;;;;;18.76;30.18;95162.94;5010835;28;20037;-80
2022/05/01 10:57:31;;;;;;;2.35;2.17;;;;;;;18.89;29.92;95141.25;5015550;28;20136;-80
2022/05/01 11:00:15;;;;;;;12.07;2.88;;;;;;;18.84;30.70;95162.34;5025803;28;20397;-80
2022/05/01 11:02:48;;;;;;;8.02;2.78;;;;;;;18.68;30.49;95150.34;5027070;28;20048;-80
2022/05/01 11:05:47;;;;;;;2.53;2.40;;;;;;;18.80;30.80;95167.38;4993711;28;20049;-80
2022/05/01 11:08:18;;;;;;;2.50;2.30;;;;;;;18.86;30.43;95136.50;5010530;28;20034;-80
2022/05/01 11:10:44;;;;;;;3.78;3.10;;;;;;;19.11;30.62;95130.25;5013575;28;20037;-80
2022/05/01 11:13:16;;;;;;;3.92;2.10;;;;;;;19.58;30.25;95134.03;5007623;28;20036;-80
2022/05/01 11:15:49;;;;;;;2.63;2.30;;;;;;;19.95;29.84;95141.28;4991209;28;20066;-80
2022/05/01 11:18:15;;;;;;;2.92;2.72;;;;;;;19.40;29.32;95125.75;5006429;28;20107;-80
2022/05/01 11:20:43;;;;;;;3.70;2.50;;;;;;;19.43;29.64;95145.50;5008552;28;20038;-81
2022/05/01 11:23:31;;;;;;;5.35;2.75;;;;;;;19.24;29.49;95128.81;5011342;28;20029;-80
2022/05/01 11:26:26;;;;;;;3.78;2.40;;;;;;;19.39;29.36;95120.75;5019491;28;20056;-80
2022/05/01 11:29:13;;;;;;;2.17;2.05;;;;;;;19.58;28.25;95124.28;5000330;28;20056;-80
2022/05/01 11:31:39;;;;;;;3.17;2.13;;;;;;;19.73;28.55;95132.03;5007173;28;20041;-82
2022/05/01 11:34:17;;;;;;;2.85;2.20;;;;;;;19.96;28.23;95114.59;5024152;28;20053;-80
2022/05/01 11:36:53;;;;;;;4.25;2.47;;;;;;;20.20;28.03;95113.78;5022513;28;20038;-80
2022/05/01 11:39:23;;;;;;;11.32;4.22;;;;;;;20.21;28.20;95124.06;5026130;28;20029;-80
2022/05/01 11:42:02;;;;;;;4.60;3.10;;;;;;;20.08;28.01;95135.31;5034750;28;20091;-80
2022/05/01 11:44:28;;;;;;;3.15;2.65;;;;;;;19.88;28.14;95115.25;5031244;28;20030;-80
2022/05/01 11:46:54;;;;;;;3.10;2.33;;;;;;;19.98;27.61;95101.13;5010552;28;20037;-80
2022/05/01 11:49:19;;;;;;;12.30;7.55;;;;;;;19.61;29.46;95110.53;5034125;28;20061;-81
2022/05/01 11:51:47;;;;;;;3.97;2.17;;;;;;;19.33;30.53;95101.56;5010134;28;20033;-80
2022/05/01 11:54:15;;;;;;;2.75;2.38;;;;;;;18.93;31.67;95092.19;5029733;28;20030;-80
2022/05/01 12:02:27;;;;;;;9.00;2.53;;;;;;;18.15;32.77;95102.72;5028309;28;20112;-80